KIFP/IFP METAR and TAF weather

Enter ICAO airport designator
Station Type Date Time Source
KIFP METAR 2021/03/06 01:35 UTC NOAA

KIFP 060135Z AUTO 36005KT 10SM CLR 24/M04 A2996 RMK AO2


Station Type Date Time Source
KIFP Decoded METAR 2021/03/06 01:35 UTC NOAA

Bullhead City, Laughlin/Bullhead International Airport, AZ, United States (KIFP) 35-09-27N 114-33-34W
Mar 05, 2021 - 08:35 PM EST / 2021.03.06 0135 UTC
Wind: from the N (360 degrees) at 6 MPH (5 KT):0
Visibility: 10 mile(s):0
Sky conditions: clear
Temperature: 75 F (24 C)
Dew Point: 24 F (-4 C)
Relative Humidity: 15%
Pressure (altimeter): 29.96 in. Hg (1014 hPa)
ob: KIFP 060135Z AUTO 36005KT 10SM CLR 24/M04 A2996 RMK AO2
cycle: 1

Station Type Date Time Source
KIFP TAF 2021/03/05 18:33 UTC NOAA

TAF KIFP 051730Z 0518/0618 01017G26KT P6SM SKC
FM052300 36007KT P6SM SCT250
FM060300 VRB05KT P6SM SCT250

Example: see airport list